AirNav   Textron
 
 312 users online  

I96 Columbia-Adair County Airport
Columbia, Kentucky, USA

GOING TO COLUMBIA?


FAA INFORMATION EFFECTIVE 17 AUGUST 2017

Location

FAA Identifier: I96
Lat/Long: 37-05-07.2230N / 085-20-49.8640W
37-05.120383N / 085-20.831067W
37.0853397 / -85.3471844
(estimated)
Elevation: 818 ft. / 249 m (estimated)
Variation: 02W (1985)
From city: 2 miles SW of COLUMBIA, KY
Time zone: UTC -5 (UTC -6 during Standard Time)
Zip code: 42728

Airport Operations

Airport use: Open to the public
Activation date: 06/1982
Control tower: no
ARTCC: INDIANAPOLIS CENTER
FSS: LOUISVILLE FLIGHT SERVICE STATION
NOTAMs facility: LOU (NOTAM-D service available)
Attendance: UNATNDD
Wind indicator: lighted
Segmented circle: yes
Lights: ACTVT MIRL RWY 8/26, PAPI RWY 8 & RWY 26 - CTAF.
Beacon: white-green (lighted land airport)
Operates sunset to sunrise.

Airport Communications

CTAF/UNICOM: 122.8
WX AWOS-3 at K24 (13 nm E): 119.6 (270-343-5556)
WX AWOS-3 at AAS (16 nm N): 121.125 (270-789-1985)

Nearby radio navigation aids

VOR radial/distance  VOR name  Freq  Var
LVTr346/31.3LIVINGSTON VOR/DME108.4002W
EWOr153/36.3NEW HOPE VOR/DME110.8001E

 
NDB name  Hdg/Dist  Freq  Var  ID
CUMBERLAND RIVER285/32.338805WCDX -.-. -.. -..-

Airport Services

Fuel available: 100LL
24 HR CREDIT CARD SVC AVBL.
Parking: tiedowns
Airframe service: NONE
Powerplant service: NONE
Bottled oxygen: NONE
Bulk oxygen: NONE

Runway Information

Runway 8/26

Dimensions: 2600 x 60 ft. / 792 x 18 m
Surface: asphalt, in good condition
Weight bearing capacity: 
Single wheel: 12.0
Runway edge lights: medium intensity
RUNWAY 8  RUNWAY 26
Traffic pattern: leftleft
Markings: nonprecision, in good conditionnonprecision, in good condition
Visual slope indicator: 2-light PAPI on left (4.00 degrees glide path)2-light PAPI on right (4.00 degrees glide path)

Airport Ownership and Management from official FAA records

Ownership: Publicly-owned
Owner: COLUMBIA-ADAIR CO. ARPT BOARD
P.O. BOX 1156
COLUMBIA, KY 42728
Phone 270-634-4974
Manager: CHRIS JANES
1021 POWELL ROAD
COLUMBIA, KY 42728
Phone 270-634-4974
ADDTL NUMBER 502-639-9900

Airport Operational Statistics

Aircraft based on the field: 13
Single engine airplanes: 13
    
Aircraft operations: avg 98/week *
49% transient general aviation
43% local general aviation
6% air taxi
2% military
* for 12-month period ending 29 July 2016

Instrument Procedures

There are no published instrument procedures at I96.

Some nearby airports with instrument procedures:

K24 - Russell County Airport (13 nm E)
KAAS - Taylor County Airport (16 nm N)
KTZV - Tompkinsville-Monroe County Airport (26 nm SW)
KEKQ - Wayne County Airport (27 nm SE)
KGLW - Glasgow Municipal Airport (29 nm W)
 
Loc | Ops | Rwys | IFR | FBO | Links
Com | Nav | Svcs | Stats | Notes


 
Area around I96 (Columbia-Adair County Airport)
 
Road maps at: MapQuest Bing Google
 
Aerial photo
WARNING: Photo may not be current or correct
Aerial photo of I96 (Columbia-Adair County Airport)
Do you have a better or more recent aerial photo of Columbia-Adair County Airport that you would like to share? If so, please send us your photo.

 
Sectional chart

 
Airport distance calculator
Flying to Columbia-Adair County Airport? Find the distance to fly.

From to I96

Sunrise and sunset
Times for 23-Aug-2017
 Local
(UTC-5)
 Zulu
(UTC)
Morning civil twilight05:3910:39
Sunrise06:0611:06
Sunset19:2200:22
Evening civil twilight19:4900:49

Current date and time
Zulu (UTC)  23-Aug-2017 09:14:57
Local (UTC-5)  23-Aug-2017 04:14:57
 
METAR
KEKQ 
27nm SE 
230850Z AUTO 32007KT 10SM FEW007 OVC013 22/21 A2999 RMK AO2 SLP163 6//// T02170211 58002 PNO $
KGLW 
29nm W 
230855Z AUTO 00000KT 10SM SCT049 20/20 A2999 RMK AO2 T02020202
K6I2 
33nm N 
230855Z AUTO 00000KT 10SM FEW031 20/19 A2999 RMK AO2
KSME 
35nm E 
230855Z AUTO 33004KT 10SM SCT009 OVC019 21/21 A2999 RMK AO2
K8A3 
40nm S 
230855Z AUTO VRB06KT 10SM SCT007 BKN012 OVC021 21/20 A2999 RMK A01
KDVK 
40nm NE 
230855Z AUTO 35004KT 10SM BKN007 OVC020 20/19 A2999 RMK AO2
KEKX 
45nm NW 
230855Z AUTO 00000KT 10SM CLR 19/19 A3000 RMK AO2 T01860186
TAF
KSME 
35nm E 
230534Z 2306/2406 00000KT P6SM SCT005 BKN020 FM230800 00000KT P6SM OVC010 FM231300 VRB03KT P6SM SCT020 BKN035 FM231600 VRB03KT P6SM SCT040 FM240000 VRB03KT P6SM SKC
NOTAMs
Click for the latest NOTAMs
NOTAMs are issued by the DoD/FAA and will open in a separate window not controlled by AirNav.

 

 
 

FBO, Fuel Providers, and Aircraft Ground Support

  
 Business Name 
 
 Contact 
 
 Services / Description 
 
Fuel Prices
 
Comments
  
Columbia-Adair County Airport 270-384-0601
no information available

If you are affiliated with Columbia-Adair County Airport and would like to show here your services, contact info, web link, logo, and more, click here
100LL
SS $3.85 
 Updated 20-Sep-2016
 
   1 read write
SS=Self service
Update Fuel Prices
 

Would you like to see your business listed on this page?

 If your business provides an interesting product or service to pilots, flight crews, aircraft, or users of the Columbia-Adair County Airport, you should consider listing it here.  To start the listing process, click on the button below
 
Add a business
 

Other Pages about Columbia-Adair County Airport

Update a link
 
Copyright © AirNav, LLC. All rights reserved. Privacy Policy  Contact